Time;durP1;ratioP1;P1;durP2;ratioP2;P2;SDS_P1;SDS_P2;PMS_P1;PMS_P2;Temp;Humidity;BMP_temperature;BMP_pressure;BME280_temperature;BME280_humidity;BME280_pressure;Samples;Min_cycle;Max_cycle;Signal;HPM_P1;HPM_P2
2023/09/21 00:00:28;;;;;;;6.00;2.70;;;20.90;77.00;;;;;;5029482;28;20039;-76
2023/09/21 00:02:57;;;;;;;7.63;3.45;;;20.90;76.90;;;;;;5032134;28;20040;-76
2023/09/21 00:05:29;;;;;;;5.40;2.70;;;20.90;76.80;;;;;;5035786;28;20025;-76
2023/09/21 00:07:57;;;;;;;6.75;2.90;;;21.00;76.80;;;;;;5031248;28;20121;-78
2023/09/21 00:10:23;;;;;;;5.95;2.95;;;21.00;76.60;;;;;;5028819;28;20377;-77
2023/09/21 00:12:49;;;;;;;8.43;2.95;;;20.90;76.70;;;;;;5029338;28;20051;-76
2023/09/21 00:15:19;;;;;;;8.43;2.92;;;21.00;76.60;;;;;;5033232;28;20029;-76
2023/09/21 00:17:46;;;;;;;7.82;2.70;;;21.00;76.70;;;;;;5029303;28;20028;-76
2023/09/21 00:20:28;;;;;;;6.18;2.80;;;20.90;76.70;;;;;;5040856;28;20115;-78
2023/09/21 00:22:54;;;;;;;6.15;2.88;;;21.00;76.80;;;;;;5029252;28;20133;-79
2023/09/21 00:25:22;;;;;;;5.85;2.70;;;20.90;76.80;;;;;;5037969;28;20124;-77
2023/09/21 00:27:48;;;;;;;6.82;3.22;;;21.00;77.10;;;;;;5035778;28;20043;-78
2023/09/21 00:30:14;;;;;;;6.97;2.95;;;20.90;77.20;;;;;;5032909;28;20028;-76
2023/09/21 00:32:40;;;;;;;7.40;3.03;;;20.90;77.30;;;;;;5033008;28;20052;-77
2023/09/21 00:35:11;;;;;;;7.07;3.00;;;20.90;77.30;;;;;;5027768;28;20100;-77
2023/09/21 00:37:40;;;;;;;6.63;3.00;;;20.80;77.10;;;;;;5028820;28;20048;-79
2023/09/21 00:40:19;;;;;;;7.28;2.83;;;20.80;77.30;;;;;;5035426;28;20298;-75
2023/09/21 00:42:46;;;;;;;8.38;3.35;;;20.80;77.50;;;;;;5036289;28;20055;-79
2023/09/21 00:45:12;;;;;;;6.80;3.22;;;20.70;78.00;;;;;;5033919;28;20709;-78
2023/09/21 00:47:39;;;;;;;12.57;3.08;;;20.70;78.00;;;;;;5038391;28;20047;-80
2023/09/21 00:50:10;;;;;;;7.07;3.35;;;20.70;78.00;;;;;;5034821;28;20549;-78
2023/09/21 00:52:44;;;;;;;8.73;2.97;;;20.70;78.20;;;;;;5029074;28;20081;-78
2023/09/21 00:55:13;;;;;;;7.45;2.92;;;20.70;78.50;;;;;;5032210;28;20080;-81
2023/09/21 00:57:40;;;;;;;7.40;3.03;;;20.60;79.10;;;;;;5030785;28;20056;-80
2023/09/21 01:00:13;;;;;;;6.25;2.90;;;20.60;79.60;;;;;;5034371;28;20025;-78
2023/09/21 01:02:42;;;;;;;6.82;2.97;;;20.60;79.40;;;;;;5031686;28;20025;-76
2023/09/21 01:05:08;;;;;;;6.20;2.83;;;20.50;79.70;;;;;;5037646;28;20029;-78
2023/09/21 01:07:36;;;;;;;7.50;3.33;;;20.50;80.60;;;;;;5029715;28;20043;-81
2023/09/21 01:10:07;;;;;;;7.10;2.90;;;20.40;81.60;;;;;;5034258;28;20534;-78
2023/09/21 01:12:35;;;;;;;8.15;3.13;;;20.30;81.90;;;;;;5030217;28;20041;-77
2023/09/21 01:15:10;;;;;;;7.25;2.90;;;20.20;82.20;;;;;;5034631;28;20021;-79
2023/09/21 01:17:39;;;;;;;6.82;3.00;;;20.20;82.70;;;;;;5032059;28;20045;-80
2023/09/21 01:22:47;;;;;;;5.80;3.22;;;20.00;83.20;;;;;;5030511;28;20178;-77
2023/09/21 01:25:15;;;;;;;9.50;3.53;;;20.00;83.30;;;;;;5034000;28;20021;-76
2023/09/21 01:27:41;;;;;;;7.95;3.10;;;20.00;83.60;;;;;;5027623;28;20041;-80
2023/09/21 01:30:12;;;;;;;7.20;3.72;;;19.90;83.90;;;;;;5029369;28;20029;-77
2023/09/21 01:32:40;;;;;;;8.18;3.13;;;19.80;84.30;;;;;;5027660;28;20467;-77
2023/09/21 01:35:07;;;;;;;7.00;3.47;;;19.80;84.50;;;;;;5030214;28;20031;-77
2023/09/21 01:37:33;;;;;;;6.20;3.00;;;19.70;84.70;;;;;;5028730;28;20048;-80
2023/09/21 01:40:00;;;;;;;8.30;3.42;;;19.70;84.90;;;;;;5025117;28;20037;-78
2023/09/21 01:42:26;;;;;;;7.00;3.33;;;19.60;85.10;;;;;;5028665;28;20084;-80
2023/09/21 01:44:51;;;;;;;8.73;3.70;;;19.60;84.90;;;;;;5032684;28;20433;-78
2023/09/21 01:47:18;;;;;;;8.43;3.80;;;19.50;85.40;;;;;;5029116;28;20501;-80
2023/09/21 01:49:44;;;;;;;10.07;3.85;;;19.50;85.70;;;;;;5033154;28;20056;-77
2023/09/21 01:52:10;;;;;;;7.80;3.55;;;19.40;85.90;;;;;;5032893;28;20592;-77
2023/09/21 01:54:36;;;;;;;6.53;3.40;;;19.30;86.40;;;;;;5031045;28;20025;-77
2023/09/21 01:57:06;;;;;;;7.65;3.33;;;19.10;87.00;;;;;;5032896;28;20037;-78
2023/09/21 01:59:33;;;;;;;7.22;3.28;;;19.10;87.20;;;;;;5034446;28;20492;-80
2023/09/21 02:01:59;;;;;;;7.53;3.65;;;19.00;87.60;;;;;;5027209;28;21763;-77
2023/09/21 02:04:24;;;;;;;7.18;3.75;;;19.00;88.00;;;;;;5030801;28;20028;-81
2023/09/21 02:06:50;;;;;;;8.05;3.60;;;18.90;88.30;;;;;;5026979;28;20436;-78
2023/09/21 02:09:16;;;;;;;8.25;3.88;;;18.80;88.50;;;;;;5031721;28;20037;-76
2023/09/21 02:11:43;;;;;;;7.32;3.13;;;18.80;88.90;;;;;;5028241;28;20072;-80
2023/09/21 02:14:11;;;;;;;5.97;3.58;;;18.80;89.10;;;;;;5030253;28;20056;-78
2023/09/21 02:16:38;;;;;;;8.02;3.78;;;18.80;89.20;;;;;;5027501;28;20021;-78
2023/09/21 02:19:03;;;;;;;9.82;3.63;;;18.70;89.50;;;;;;5034540;28;20052;-80
2023/09/21 02:21:29;;;;;;;6.22;3.08;;;18.70;89.70;;;;;;5028780;28;20417;-78
2023/09/21 02:23:55;;;;;;;9.50;3.90;;;18.70;89.70;;;;;;5031178;28;20059;-77
2023/09/21 02:26:21;;;;;;;8.43;3.45;;;18.70;90.10;;;;;;5032926;28;20501;-77
2023/09/21 02:28:48;;;;;;;9.85;3.78;;;18.60;90.20;;;;;;5032133;28;20033;-76
2023/09/21 02:31:14;;;;;;;6.97;3.25;;;18.60;90.40;;;;;;5029963;28;20098;-82
2023/09/21 02:33:42;;;;;;;8.55;3.50;;;18.60;90.60;;;;;;5030991;28;20477;-81
2023/09/21 02:36:19;;;;;;;7.63;3.10;;;18.60;90.80;;;;;;5031663;28;20100;-77
2023/09/21 02:38:48;;;;;;;7.13;3.50;;;18.60;91.00;;;;;;5034852;28;20056;-79
2023/09/21 02:41:14;;;;;;;6.80;3.50;;;18.60;91.10;;;;;;5035219;28;20019;-78
2023/09/21 02:43:40;;;;;;;8.95;4.20;;;18.60;91.40;;;;;;5029679;28;20045;-80
2023/09/21 02:46:06;;;;;;;8.20;3.90;;;18.50;91.50;;;;;;5033674;28;20028;-77
2023/09/21 02:48:33;;;;;;;7.53;3.70;;;18.50;91.80;;;;;;5029892;28;20026;-80
2023/09/21 02:51:01;;;;;;;7.18;4.22;;;18.40;92.10;;;;;;5033230;28;20029;-78
2023/09/21 02:53:27;;;;;;;9.48;4.25;;;18.30;92.40;;;;;;5031717;28;20040;-81
2023/09/21 02:55:53;;;;;;;7.53;4.00;;;18.30;92.70;;;;;;5029554;28;20021;-82
2023/09/21 02:58:19;;;;;;;9.05;4.50;;;18.30;92.80;;;;;;5033379;28;20108;-77
2023/09/21 03:00:45;;;;;;;8.52;4.55;;;18.20;93.00;;;;;;5031979;28;20056;-79
2023/09/21 03:03:17;;;;;;;8.57;4.53;;;18.20;93.30;;;;;;5035740;28;20543;-79
2023/09/21 03:05:47;;;;;;;9.27;4.55;;;18.10;93.30;;;;;;5036621;28;20195;-80
2023/09/21 03:08:13;;;;;;;9.52;4.65;;;18.20;93.30;;;;;;5034558;28;20088;-78
2023/09/21 03:10:50;;;;;;;7.05;3.80;;;18.10;93.40;;;;;;5049917;28;20025;-82
2023/09/21 03:13:17;;;;;;;10.60;4.60;;;18.10;93.40;;;;;;5053352;28;20056;-83
2023/09/21 03:15:47;;;;;;;7.97;4.60;;;18.10;93.30;;;;;;5054883;28;20105;-78
2023/09/21 03:18:14;;;;;;;8.60;4.60;;;18.10;93.40;;;;;;5037451;28;20041;-78
2023/09/21 03:20:40;;;;;;;8.07;4.25;;;18.10;93.20;;;;;;5038111;28;20025;-81
2023/09/21 03:23:09;;;;;;;9.02;4.30;;;18.00;93.20;;;;;;5032394;28;20125;-78
2023/09/21 03:25:47;;;;;;;8.05;4.70;;;18.00;93.10;;;;;;5037600;28;20025;-82
2023/09/21 03:28:17;;;;;;;8.40;4.38;;;18.00;93.20;;;;;;5036733;28;20029;-77
2023/09/21 03:30:45;;;;;;;8.57;4.70;;;17.90;93.10;;;;;;5036072;28;20568;-75
2023/09/21 03:33:12;;;;;;;8.88;4.18;;;17.90;93.30;;;;;;5030542;28;20516;-80
2023/09/21 03:35:38;;;;;;;9.25;4.63;;;17.90;93.50;;;;;;5030858;28;20040;-76
2023/09/21 03:38:12;;;;;;;7.72;4.78;;;17.90;93.70;;;;;;5034305;28;20052;-78
2023/09/21 03:40:37;;;;;;;8.93;5.03;;;17.90;93.70;;;;;;5036973;28;20086;-82
2023/09/21 03:43:03;;;;;;;9.32;5.15;;;17.90;93.80;;;;;;5030107;28;20032;-76
2023/09/21 03:45:30;;;;;;;7.88;5.20;;;17.90;93.90;;;;;;5035658;28;20448;-77
2023/09/21 03:47:56;;;;;;;10.00;4.75;;;17.90;94.00;;;;;;5034947;28;20042;-82
2023/09/21 03:50:25;;;;;;;10.30;5.50;;;17.90;94.10;;;;;;5037884;28;20083;-76
2023/09/21 03:52:53;;;;;;;8.77;5.25;;;17.90;94.20;;;;;;5033899;28;20132;-76
2023/09/21 03:55:19;;;;;;;7.70;4.88;;;17.90;94.30;;;;;;5035664;28;20072;-79
2023/09/21 03:57:46;;;;;;;9.27;5.05;;;17.90;94.40;;;;;;5035703;28;20116;-76
2023/09/21 04:00:26;;;;;;;10.98;5.45;;;18.00;94.40;;;;;;5032902;28;20175;-77
2023/09/21 04:03:09;;;;;;;8.07;4.22;;;18.00;94.30;;;;;;5046583;28;20034;-77
2023/09/21 04:05:37;;;;;;;6.35;3.05;;;17.90;93.70;;;;;;5032820;28;20122;-79
2023/09/21 04:08:04;;;;;;;5.90;2.20;;;17.60;93.00;;;;;;5030443;28;20377;-78
2023/09/21 04:10:30;;;;;;;3.75;1.85;;;17.30;92.40;;;;;;5035257;28;20025;-78
2023/09/21 04:12:56;;;;;;;3.25;1.40;;;16.90;91.50;;;;;;5035810;28;20254;-79
2023/09/21 04:15:24;;;;;;;4.88;1.52;;;16.60;91.80;;;;;;5057870;28;20078;-76
2023/09/21 04:17:50;;;;;;;2.78;1.42;;;16.60;91.50;;;;;;5048460;28;20547;-79
2023/09/21 04:20:18;;;;;;;3.58;1.80;;;16.50;91.20;;;;;;5043840;28;20028;-80
2023/09/21 04:22:46;;;;;;;3.00;1.58;;;16.40;91.20;;;;;;5042306;28;20155;-76
2023/09/21 04:25:14;;;;;;;3.92;1.98;;;16.20;91.80;;;;;;5049077;28;20013;-76
2023/09/21 04:27:45;;;;;;;5.38;1.40;;;16.20;92.00;;;;;;5057230;28;20263;-81
2023/09/21 04:30:16;;;;;;;3.90;1.38;;;16.20;92.30;;;;;;5063009;28;20542;-78
2023/09/21 04:32:46;;;;;;;1.85;1.35;;;16.20;92.50;;;;;;5058330;28;20041;-77
2023/09/21 04:35:14;;;;;;;2.88;1.60;;;16.30;92.50;;;;;;5053886;28;20107;-78
2023/09/21 04:37:42;;;;;;;4.10;1.70;;;16.20;92.70;;;;;;5067686;28;20534;-79
2023/09/21 04:40:10;;;;;;;3.03;1.65;;;16.30;92.70;;;;;;5059928;28;20032;-80
2023/09/21 04:42:39;;;;;;;3.42;1.73;;;16.30;92.80;;;;;;5052036;28;20029;-82
2023/09/21 04:45:11;;;;;;;3.50;1.73;;;16.30;92.90;;;;;;5057091;28;20068;-79
2023/09/21 04:47:37;;;;;;;3.90;1.45;;;16.40;93.00;;;;;;5051280;28;20033;-77
2023/09/21 04:50:05;;;;;;;5.05;2.13;;;16.40;93.00;;;;;;5067839;28;20492;-78
2023/09/21 04:52:32;;;;;;;4.32;2.03;;;16.40;93.00;;;;;;5047102;28;20097;-82
2023/09/21 04:54:59;;;;;;;7.15;4.00;;;16.40;93.20;;;;;;5051801;28;20378;-77
2023/09/21 04:57:30;;;;;;;10.27;4.93;;;16.50;92.90;;;;;;5050056;28;20497;-78
2023/09/21 04:59:59;;;;;;;6.50;4.28;;;16.50;93.00;;;;;;5059674;28;20032;-79
2023/09/21 05:02:25;;;;;;;7.78;4.45;;;16.40;93.10;;;;;;5049711;28;20056;-77
2023/09/21 05:04:51;;;;;;;7.32;4.47;;;16.40;93.20;;;;;;5052091;28;20039;-76
2023/09/21 05:07:18;;;;;;;7.38;4.78;;;16.40;93.40;;;;;;5057132;28;20041;-80
2023/09/21 05:09:47;;;;;;;6.72;4.13;;;16.50;93.50;;;;;;5064309;28;20421;-78
2023/09/21 05:12:13;;;;;;;7.38;4.50;;;16.40;93.40;;;;;;5054551;28;20166;-78
2023/09/21 05:14:39;;;;;;;9.18;4.25;;;16.40;93.50;;;;;;5051822;28;20036;-82
2023/09/21 05:17:05;;;;;;;7.32;4.00;;;16.30;93.60;;;;;;5052797;28;20338;-77
2023/09/21 05:19:33;;;;;;;6.78;3.30;;;16.30;93.70;;;;;;5056326;28;20025;-77
2023/09/21 05:21:59;;;;;;;9.02;3.65;;;16.30;93.70;;;;;;5052746;28;20021;-79
2023/09/21 05:24:26;;;;;;;8.15;3.28;;;16.30;93.80;;;;;;5054076;28;20352;-76
2023/09/21 05:26:52;;;;;;;6.18;3.08;;;16.30;93.90;;;;;;5054198;28;20035;-82
2023/09/21 05:29:20;;;;;;;6.47;2.80;;;16.40;93.90;;;;;;5054785;28;20127;-76
2023/09/21 05:31:46;;;;;;;5.18;2.55;;;16.30;93.90;;;;;;5051814;28;20057;-78
2023/09/21 05:34:11;;;;;;;5.75;3.05;;;16.30;93.90;;;;;;5052808;28;20044;-80
2023/09/21 05:36:37;;;;;;;5.35;2.90;;;16.30;93.90;;;;;;5051458;28;20033;-79
2023/09/21 05:39:04;;;;;;;7.20;2.92;;;16.40;93.90;;;;;;5059246;28;20066;-76
2023/09/21 05:41:31;;;;;;;7.00;3.55;;;16.30;93.80;;;;;;5060763;28;20147;-81
2023/09/21 05:43:57;;;;;;;6.22;3.00;;;16.40;93.80;;;;;;5063918;28;20060;-80
2023/09/21 05:46:23;;;;;;;5.65;2.80;;;16.20;93.70;;;;;;5061221;28;20780;-76
2023/09/21 05:48:49;;;;;;;5.10;2.58;;;16.30;93.90;;;;;;5064462;28;20028;-80
2023/09/21 05:51:14;;;;;;;5.63;3.08;;;16.30;93.90;;;;;;5061573;28;20013;-79
2023/09/21 05:53:40;;;;;;;4.78;2.67;;;16.30;94.00;;;;;;5059845;28;20132;-79
2023/09/21 05:56:06;;;;;;;5.97;2.53;;;16.30;94.10;;;;;;5058379;28;20399;-77
2023/09/21 05:58:32;;;;;;;4.88;2.78;;;16.30;94.00;;;;;;5057789;28;20033;-77
2023/09/21 06:01:01;;;;;;;7.18;2.65;;;16.30;94.10;;;;;;5058264;28;20035;-80
2023/09/21 06:03:27;;;;;;;5.38;2.70;;;16.20;94.00;;;;;;5062996;28;20044;-77
2023/09/21 06:05:53;;;;;;;6.95;2.60;;;16.20;94.00;;;;;;5056081;28;20081;-79
2023/09/21 06:08:19;;;;;;;7.10;2.72;;;16.20;94.00;;;;;;5060983;28;20360;-81
2023/09/21 06:10:46;;;;;;;5.63;2.85;;;16.10;93.70;;;;;;5061872;28;20037;-77
2023/09/21 06:13:12;;;;;;;7.05;3.20;;;16.10;93.60;;;;;;5056745;28;20040;-76
2023/09/21 06:15:48;;;;;;;6.10;3.00;;;16.10;93.60;;;;;;5056070;28;20051;-81
2023/09/21 06:18:14;;;;;;;7.75;2.97;;;16.20;93.80;;;;;;5052858;28;20032;-80
2023/09/21 06:20:43;;;;;;;6.57;3.22;;;16.10;93.70;;;;;;5051685;28;20025;-77
2023/09/21 06:23:09;;;;;;;6.82;3.47;;;16.10;93.90;;;;;;5058292;28;20054;-76
2023/09/21 06:25:36;;;;;;;5.68;3.30;;;16.10;93.90;;;;;;5056258;28;20031;-77
2023/09/21 06:28:02;;;;;;;8.15;3.55;;;16.20;93.90;;;;;;5048142;28;20037;-76
2023/09/21 06:30:28;;;;;;;6.93;4.30;;;16.20;93.60;;;;;;5058631;28;20041;-76
2023/09/21 06:32:55;;;;;;;10.57;4.55;;;16.20;93.80;;;;;;5048095;28;20060;-78
2023/09/21 06:35:25;;;;;;;6.82;3.58;;;16.10;93.20;;;;;;5047370;28;20484;-78
2023/09/21 06:37:54;;;;;;;6.50;3.85;;;16.10;93.30;;;;;;5052433;28;20694;-80
2023/09/21 06:40:24;;;;;;;7.63;4.35;;;16.20;93.40;;;;;;5051485;28;20098;-82
2023/09/21 06:42:50;;;;;;;7.28;4.47;;;16.20;93.40;;;;;;5051222;28;20052;-79
2023/09/21 06:45:16;;;;;;;6.47;3.75;;;16.20;93.40;;;;;;5048577;28;20431;-78
2023/09/21 06:47:42;;;;;;;7.90;4.50;;;16.20;93.50;;;;;;5059630;28;20086;-76
2023/09/21 06:50:11;;;;;;;6.18;3.72;;;16.30;93.20;;;;;;5056283;28;20087;-74
2023/09/21 06:52:37;;;;;;;7.35;3.85;;;16.20;93.40;;;;;;5039470;28;20033;-75
2023/09/21 06:55:05;;;;;;;8.02;3.85;;;16.30;93.40;;;;;;5029964;28;20389;-78
2023/09/21 06:57:34;;;;;;;9.00;4.13;;;16.30;93.70;;;;;;5025603;28;20034;-75
2023/09/21 07:00:01;;;;;;;9.32;3.60;;;16.40;93.80;;;;;;5030623;28;20029;-75
2023/09/21 07:02:26;;;;;;;5.72;3.70;;;16.60;94.30;;;;;;5023690;28;20033;-77
2023/09/21 07:04:53;;;;;;;8.77;3.90;;;16.70;94.50;;;;;;5029486;28;20369;-75
2023/09/21 07:07:19;;;;;;;8.18;4.65;;;16.80;94.20;;;;;;5025926;28;20569;-77
2023/09/21 07:09:45;;;;;;;7.38;3.47;;;16.70;93.40;;;;;;5032913;28;20068;-77
2023/09/21 07:12:12;;;;;;;7.18;3.55;;;16.70;93.50;;;;;;5028678;28;20126;-75
2023/09/21 07:14:38;;;;;;;6.40;4.10;;;16.70;93.30;;;;;;5032744;28;20033;-75
2023/09/21 07:17:05;;;;;;;7.65;3.70;;;16.70;92.90;;;;;;5028949;28;20071;-77
2023/09/21 07:19:31;;;;;;;6.55;3.78;;;16.60;92.80;;;;;;5029194;28;20120;-75
2023/09/21 07:21:57;;;;;;;6.68;3.67;;;16.60;92.50;;;;;;5026629;28;20056;-76
2023/09/21 07:24:23;;;;;;;6.65;4.28;;;16.60;92.60;;;;;;5057938;28;20025;-76
2023/09/21 07:26:49;;;;;;;7.88;5.00;;;16.50;92.50;;;;;;5050918;28;20040;-76
2023/09/21 07:29:16;;;;;;;8.38;4.90;;;16.40;92.30;;;;;;5033152;28;20040;-75
2023/09/21 07:31:43;;;;;;;8.35;4.70;;;16.40;92.60;;;;;;5025004;28;20052;-75
2023/09/21 07:34:09;;;;;;;7.40;4.50;;;16.40;92.70;;;;;;5031192;28;20256;-78
2023/09/21 07:36:36;;;;;;;7.90;4.47;;;16.30;92.90;;;;;;5029252;28;20182;-79
2023/09/21 07:39:03;;;;;;;6.35;4.50;;;16.40;92.70;;;;;;5032673;28;20483;-78
2023/09/21 07:41:29;;;;;;;8.57;5.00;;;16.30;92.60;;;;;;5026497;28;20116;-77
2023/09/21 07:43:55;;;;;;;7.88;5.35;;;16.30;92.70;;;;;;5027345;28;20060;-75
2023/09/21 07:46:21;;;;;;;8.52;4.88;;;16.40;92.60;;;;;;5032762;28;20590;-75
2023/09/21 07:48:49;;;;;;;7.97;5.38;;;16.30;92.40;;;;;;5031068;28;20033;-75
2023/09/21 07:51:16;;;;;;;6.93;4.22;;;16.30;92.70;;;;;;5026407;28;20029;-74
2023/09/21 07:53:43;;;;;;;6.63;4.13;;;16.30;93.00;;;;;;5024335;28;20352;-76
2023/09/21 07:56:12;;;;;;;7.53;4.55;;;16.30;93.20;;;;;;5028416;28;20036;-75
2023/09/21 07:58:38;;;;;;;6.35;3.58;;;16.30;93.30;;;;;;5024449;28;21037;-75
2023/09/21 08:01:04;;;;;;;5.28;3.22;;;16.20;93.30;;;;;;5028488;28;20044;-74
2023/09/21 08:03:31;;;;;;;8.18;3.20;;;16.10;93.20;;;;;;5043228;28;20243;-74
2023/09/21 08:05:57;;;;;;;5.63;2.72;;;16.00;92.80;;;;;;5036330;28;20025;-75
2023/09/21 08:08:26;;;;;;;5.75;3.03;;;15.70;92.30;;;;;;5029289;28;20379;-75
2023/09/21 08:10:53;;;;;;;6.70;3.50;;;15.60;92.60;;;;;;5033458;28;20032;-76
2023/09/21 08:13:21;;;;;;;8.13;3.83;;;15.50;92.90;;;;;;5046353;28;20052;-75
2023/09/21 08:15:47;;;;;;;8.63;3.70;;;15.50;93.20;;;;;;5053149;28;20630;-74
2023/09/21 08:18:13;;;;;;;7.05;3.30;;;15.50;93.20;;;;;;5054246;28;20032;-74
2023/09/21 08:20:42;;;;;;;7.10;3.50;;;15.00;92.80;;;;;;5043565;28;20386;-74
2023/09/21 08:23:08;;;;;;;6.45;2.97;;;14.80;92.80;;;;;;5035912;28;20035;-74
2023/09/21 08:25:38;;;;;;;6.82;3.30;;;14.80;92.80;;;;;;5035831;28;20138;-74
2023/09/21 08:28:04;;;;;;;7.88;3.30;;;14.70;92.70;;;;;;5029791;28;20033;-74
2023/09/21 08:30:33;;;;;;;8.98;3.97;;;14.70;92.70;;;;;;5034349;28;20045;-74
2023/09/21 08:32:59;;;;;;;7.75;3.60;;;14.70;93.10;;;;;;5031504;28;20072;-73
2023/09/21 08:35:26;;;;;;;7.85;3.63;;;14.70;93.20;;;;;;5032674;28;20029;-73
2023/09/21 08:37:52;;;;;;;8.20;3.97;;;14.80;93.00;;;;;;5032217;28;20120;-72
2023/09/21 08:40:22;;;;;;;7.88;3.90;;;14.80;93.10;;;;;;5034030;28;20018;-74
2023/09/21 08:42:52;;;;;;;7.55;4.10;;;14.90;93.10;;;;;;5031662;28;20128;-72
2023/09/21 08:45:19;;;;;;;11.15;5.93;;;14.90;93.00;;;;;;5036010;28;20041;-75
2023/09/21 08:47:46;;;;;;;10.10;7.10;;;15.00;93.10;;;;;;5037459;28;20025;-75
2023/09/21 08:50:15;;;;;;;12.48;7.10;;;15.00;93.30;;;;;;5033695;28;20030;-76
2023/09/21 08:52:45;;;;;;;9.25;5.07;;;15.00;93.40;;;;;;5034751;28;20152;-75
2023/09/21 08:55:14;;;;;;;9.10;4.22;;;15.00;93.20;;;;;;5037150;28;20025;-76
2023/09/21 08:57:40;;;;;;;19.58;6.20;;;14.90;93.40;;;;;;5028098;28;20040;-75
2023/09/21 09:00:08;;;;;;;15.70;6.05;;;14.90;93.40;;;;;;5039249;28;20094;-75
2023/09/21 09:02:37;;;;;;;15.45;6.00;;;14.80;93.90;;;;;;5031883;28;20175;-75
2023/09/21 09:05:08;;;;;;;9.90;4.70;;;14.70;94.40;;;;;;5035672;28;20476;-74
2023/09/21 09:07:41;;;;;;;7.88;3.50;;;14.70;94.30;;;;;;5036120;28;20076;-74
2023/09/21 09:10:09;;;;;;;7.53;3.53;;;14.60;93.70;;;;;;5040467;28;20049;-75
2023/09/21 09:12:35;;;;;;;13.13;3.88;;;14.50;93.70;;;;;;5034245;28;20140;-74
2023/09/21 09:15:03;;;;;;;7.63;3.10;;;14.50;94.00;;;;;;5039948;28;20115;-74
2023/09/21 09:17:36;;;;;;;6.95;2.65;;;14.30;93.70;;;;;;5031757;28;20029;-75
2023/09/21 09:20:05;;;;;;;7.88;3.33;;;14.30;93.90;;;;;;5035172;28;20339;-75
2023/09/21 09:22:34;;;;;;;7.70;3.30;;;14.20;94.10;;;;;;5036062;28;20053;-73
2023/09/21 09:25:09;;;;;;;7.40;3.33;;;14.10;94.20;;;;;;5032746;28;20018;-75
2023/09/21 09:27:35;;;;;;;6.72;2.95;;;14.30;94.70;;;;;;5030027;28;20394;-75
2023/09/21 09:30:03;;;;;;;6.85;3.25;;;14.40;94.60;;;;;;5034124;28;20047;-75
2023/09/21 09:32:37;;;;;;;7.10;3.25;;;14.50;94.60;;;;;;5030148;28;20045;-75
2023/09/21 09:35:06;;;;;;;6.30;2.83;;;14.50;94.40;;;;;;5034337;28;20020;-75
2023/09/21 09:37:32;;;;;;;6.88;3.17;;;14.60;94.40;;;;;;5030855;28;20135;-74
2023/09/21 09:39:58;;;;;;;10.13;3.13;;;14.60;94.20;;;;;;5036302;28;20025;-75
2023/09/21 09:42:26;;;;;;;6.40;3.00;;;14.60;94.10;;;;;;5027614;28;20034;-75
2023/09/21 09:44:54;;;;;;;6.97;3.40;;;14.70;94.20;;;;;;5033001;28;20033;-76
2023/09/21 09:47:23;;;;;;;9.05;3.38;;;14.80;94.20;;;;;;5029501;28;20030;-74
2023/09/21 09:49:51;;;;;;;6.60;3.13;;;14.90;94.00;;;;;;5034799;28;20021;-74
2023/09/21 09:52:19;;;;;;;8.57;3.40;;;15.00;94.00;;;;;;5030347;28;20462;-74
2023/09/21 09:54:51;;;;;;;6.72;3.13;;;15.00;93.80;;;;;;5031762;28;20541;-75
2023/09/21 09:57:19;;;;;;;6.70;3.00;;;15.10;93.40;;;;;;5031962;28;20147;-75
2023/09/21 09:59:46;;;;;;;7.22;3.05;;;15.00;93.00;;;;;;5038322;28;20347;-76
2023/09/21 10:02:17;;;;;;;5.90;2.80;;;15.10;93.20;;;;;;5031477;28;20482;-76
2023/09/21 10:04:46;;;;;;;6.80;3.17;;;15.10;93.30;;;;;;5039418;28;20021;-74
2023/09/21 10:07:16;;;;;;;6.88;3.13;;;15.20;93.30;;;;;;5028667;28;20120;-75
2023/09/21 10:09:46;;;;;;;6.35;2.85;;;15.20;92.80;;;;;;5031827;28;20020;-75
2023/09/21 10:12:12;;;;;;;6.60;3.00;;;15.20;93.00;;;;;;5029574;28;20034;-75
2023/09/21 10:14:45;;;;;;;7.32;3.08;;;15.20;92.90;;;;;;5039429;28;20024;-74
2023/09/21 10:17:14;;;;;;;6.50;2.80;;;15.20;92.80;;;;;;5039447;28;20049;-74
2023/09/21 10:19:43;;;;;;;7.20;3.10;;;15.30;93.00;;;;;;5035223;28;21116;-75
2023/09/21 10:22:23;;;;;;;5.88;3.00;;;15.40;93.10;;;;;;5031406;28;20037;-74
2023/09/21 10:24:58;;;;;;;5.43;2.40;;;15.40;92.80;;;;;;5033510;28;20357;-75
2023/09/21 10:27:33;;;;;;;6.45;3.05;;;15.40;92.50;;;;;;5037253;28;20025;-73
2023/09/21 10:30:09;;;;;;;7.85;2.88;;;15.50;92.40;;;;;;5037479;28;20021;-74
2023/09/21 10:32:45;;;;;;;5.55;2.42;;;15.20;92.00;;;;;;5035200;28;20044;-74
2023/09/21 10:35:46;;;;;;;5.90;2.55;;;15.20;92.60;;;;;;5033575;28;20115;-75
2023/09/21 10:38:16;;;;;;;5.75;2.60;;;15.30;92.80;;;;;;5029089;28;20037;-75
2023/09/21 10:40:43;;;;;;;5.60;2.45;;;15.50;92.80;;;;;;5033154;28;20035;-75
2023/09/21 10:43:44;;;;;;;5.43;2.30;;;15.60;92.90;;;;;;5027222;28;20323;-75
2023/09/21 10:46:21;;;;;;;5.80;2.80;;;15.60;92.40;;;;;;4996078;28;20025;-74
2023/09/21 10:48:49;;;;;;;5.78;2.40;;;15.70;92.40;;;;;;5026606;28;20140;-75
2023/09/21 10:51:15;;;;;;;4.32;2.15;;;15.70;92.40;;;;;;5036972;28;20673;-75
2023/09/21 10:53:42;;;;;;;5.60;2.75;;;15.70;92.30;;;;;;5038764;28;20068;-74
2023/09/21 10:56:07;;;;;;;4.82;2.40;;;15.70;92.30;;;;;;5038876;28;20660;-74
2023/09/21 10:58:33;;;;;;;5.75;2.65;;;15.70;92.30;;;;;;5035649;28;20041;-74
2023/09/21 11:01:00;;;;;;;5.63;2.47;;;15.70;92.40;;;;;;5033751;28;20036;-74
2023/09/21 11:03:27;;;;;;;6.85;2.85;;;15.80;92.60;;;;;;5032585;28;20044;-74
2023/09/21 11:05:54;;;;;;;4.95;2.58;;;15.90;92.50;;;;;;5035868;28;20060;-74
2023/09/21 11:08:24;;;;;;;4.03;2.22;;;16.00;92.70;;;;;;5031443;28;20444;-74
2023/09/21 11:10:50;;;;;;;4.82;2.40;;;16.00;92.60;;;;;;5038119;28;20017;-74
2023/09/21 11:13:17;;;;;;;4.18;2.35;;;16.10;92.20;;;;;;5030393;28;20025;-74
2023/09/21 11:15:44;;;;;;;5.70;2.17;;;16.10;92.10;;;;;;5036847;28;20025;-75
2023/09/21 11:18:10;;;;;;;5.13;2.15;;;16.10;91.30;;;;;;5028207;28;20045;-74
2023/09/21 11:20:36;;;;;;;5.00;2.38;;;16.00;91.20;;;;;;5032793;28;20037;-74
2023/09/21 11:23:03;;;;;;;6.22;2.35;;;15.90;91.10;;;;;;5035128;28;20033;-74
2023/09/21 11:25:29;;;;;;;5.47;3.08;;;16.10;91.90;;;;;;5036595;28;20083;-75
2023/09/21 11:27:58;;;;;;;5.75;2.70;;;16.00;91.30;;;;;;5047306;28;20038;-75
2023/09/21 11:30:25;;;;;;;5.22;2.75;;;15.80;91.70;;;;;;5034110;28;20022;-73
2023/09/21 11:32:54;;;;;;;5.30;2.45;;;15.80;92.20;;;;;;5031495;28;20252;-75
2023/09/21 11:35:21;;;;;;;5.43;2.88;;;15.90;92.80;;;;;;5029729;28;20484;-75
2023/09/21 11:37:49;;;;;;;5.32;2.67;;;16.10;92.90;;;;;;5033580;28;20033;-73
2023/09/21 11:40:21;;;;;;;4.40;2.40;;;16.20;92.90;;;;;;5037154;28;20055;-74
2023/09/21 11:42:48;;;;;;;4.95;2.70;;;16.20;92.70;;;;;;5040700;28;20047;-75
2023/09/21 11:45:17;;;;;;;4.75;2.58;;;16.30;92.60;;;;;;5032373;28;20013;-75
2023/09/21 11:48:03;;;;;;;5.70;3.00;;;16.40;92.70;;;;;;5033181;28;20061;-74
2023/09/21 11:50:34;;;;;;;6.53;2.90;;;16.50;92.80;;;;;;5039441;28;20028;-76
2023/09/21 11:53:06;;;;;;;5.80;2.65;;;16.60;92.80;;;;;;5040478;28;20033;-74
2023/09/21 11:55:32;;;;;;;5.07;2.67;;;16.60;92.50;;;;;;5033951;28;20838;-74
2023/09/21 11:58:08;;;;;;;8.32;3.10;;;16.80;92.70;;;;;;5038604;28;20120;-74
2023/09/21 12:00:45;;;;;;;5.22;2.70;;;16.80;92.20;;;;;;5035897;28;20005;-74
2023/09/21 12:03:13;;;;;;;6.13;3.00;;;16.90;92.30;;;;;;5031491;28;20033;-74
2023/09/21 12:05:42;;;;;;;6.18;2.95;;;16.90;92.20;;;;;;5034640;28;20020;-74
2023/09/21 12:08:14;;;;;;;5.75;2.92;;;16.90;92.30;;;;;;5034651;28;20333;-74
2023/09/21 12:10:52;;;;;;;5.78;3.10;;;16.90;92.20;;;;;;5040691;28;20469;-74
2023/09/21 12:13:19;;;;;;;5.93;3.30;;;16.90;92.30;;;;;;5034964;28;20037;-74
2023/09/21 12:15:45;;;;;;;6.15;3.55;;;16.90;92.00;;;;;;5042219;28;20024;-75
2023/09/21 12:18:11;;;;;;;6.70;3.10;;;16.90;92.20;;;;;;5034639;28;20433;-75
2023/09/21 12:20:38;;;;;;;6.80;3.60;;;16.90;92.60;;;;;;5039834;28;20024;-74
2023/09/21 12:23:06;;;;;;;6.97;3.55;;;16.90;92.60;;;;;;5036979;28;20044;-74
2023/09/21 12:25:33;;;;;;;5.60;3.25;;;16.80;92.50;;;;;;5040684;28;20014;-74
2023/09/21 12:27:58;;;;;;;6.85;3.47;;;16.90;92.90;;;;;;5036308;28;20142;-75
2023/09/21 12:30:24;;;;;;;6.70;3.65;;;17.00;93.10;;;;;;5037923;28;20123;-74
2023/09/21 12:32:50;;;;;;;4.93;2.88;;;17.00;93.10;;;;;;5037537;28;20056;-74
2023/09/21 12:35:19;;;;;;;6.00;3.55;;;17.00;93.10;;;;;;5037055;28;20017;-74
2023/09/21 12:37:45;;;;;;;5.78;3.28;;;17.00;93.20;;;;;;5035384;28;20091;-72
2023/09/21 12:40:15;;;;;;;4.82;2.67;;;17.10;93.10;;;;;;5038356;28;20437;-74
2023/09/21 12:42:42;;;;;;;6.32;3.13;;;17.10;92.90;;;;;;5035713;28;20040;-75
2023/09/21 12:45:15;;;;;;;4.68;2.88;;;17.10;92.90;;;;;;5031218;28;20021;-75
2023/09/21 12:47:41;;;;;;;5.53;2.67;;;17.30;93.10;;;;;;5031530;28;20098;-74
2023/09/21 12:50:09;;;;;;;5.05;3.00;;;17.30;92.90;;;;;;5033543;28;20024;-74
2023/09/21 12:52:35;;;;;;;4.25;2.90;;;17.40;92.60;;;;;;5029767;28;20080;-74